Time;durP1;ratioP1;P1;durP2;ratioP2;P2;SDS_P1;SDS_P2;PMS_P1;PMS_P2;Temp;Humidity;BMP_temperature;BMP_pressure;BME280_temperature;BME280_humidity;BME280_pressure;Samples;Min_cycle;Max_cycle;Signal;HPM_P1;HPM_P2
2021/11/18 00:00:35;;;;;;;26.67;7.28;;;;;;;;;;4406784;32;20057;-70
2021/11/18 00:03:16;;;;;;;29.42;8.43;;;;;;;;;;4332135;33;20028;-70
2021/11/18 00:05:41;;;;;;;26.65;7.57;;;;;;;;;;4405697;32;20043;-69
2021/11/18 00:08:07;;;;;;;;;;;;;;;;;;4407278;32;20053;-70
2021/11/18 00:10:37;;;;;;;28.20;7.37;;;;;;;;;;4407240;32;20341;-70
2021/11/18 00:13:03;;;;;;;27.83;7.85;;;;;;;;;;4406574;32;20053;-70
2021/11/18 00:15:29;;;;;;;34.25;8.15;;;;;;;;;;4392454;32;20080;-69
2021/11/18 00:17:59;;;;;;;24.63;8.48;;;;;;;;;;4406217;32;20071;-70
2021/11/18 00:20:26;;;;;;;29.10;8.68;;;;;;;;;;4406086;32;20396;-70
2021/11/18 00:22:53;;;;;;;28.67;6.80;;;;;;;;;;4406032;32;20030;-70
2021/11/18 00:25:19;;;;;;;28.02;6.57;;;;;;;;;;4405886;32;20022;-70
2021/11/18 00:27:44;;;;;;;;;;;;;;;;;;4406755;32;20155;-70
2021/11/18 00:30:11;;;;;;;21.75;6.50;;;;;;;;;;4405888;32;20013;-70
2021/11/18 00:32:36;;;;;;;32.20;7.25;;;;;;;;;;4405970;32;20343;-69
2021/11/18 00:35:01;;;;;;;;;;;;;;;;;;4405742;32;20048;-70
2021/11/18 00:37:27;;;;;;;33.28;8.80;;;;;;;;;;4406271;32;19949;-69
2021/11/18 00:39:52;;;;;;;;;;;;;;;;;;4405749;32;20019;-70
2021/11/18 00:42:25;;;;;;;30.40;8.38;;;;;;;;;;4405941;32;20029;-70
2021/11/18 00:44:54;;;;;;;30.98;7.30;;;;;;;;;;4406875;32;20456;-69
2021/11/18 00:47:19;;;;;;;24.42;7.00;;;;;;;;;;4405470;32;20042;-69
2021/11/18 00:49:45;;;;;;;;;;;;;;;;;;4391841;32;20049;-70
2021/11/18 00:52:10;;;;;;;27.08;7.25;;;;;;;;;;4391532;32;19948;-69
2021/11/18 00:54:35;;;;;;;;;;;;;;;;;;4405629;32;20042;-69
2021/11/18 00:57:03;;;;;;;32.92;7.62;;;;;;;;;;4405685;32;19941;-69
2021/11/18 00:59:30;;;;;;;48.55;9.73;;;;;;;;;;4406622;32;20153;-70
2021/11/18 01:01:55;;;;;;;33.60;7.85;;;;;;;;;;4420993;32;20099;-69
2021/11/18 01:04:20;;;;;;;;;;;;;;;;;;4421432;32;20366;-70
2021/11/18 01:06:48;;;;;;;28.52;8.30;;;;;;;;;;4407277;32;20500;-70
2021/11/18 01:09:14;;;;;;;30.83;8.52;;;;;;;;;;4421391;32;20030;-70
2021/11/18 01:11:39;;;;;;;;;;;;;;;;;;4421145;32;20037;-70
2021/11/18 01:14:06;;;;;;;25.40;8.52;;;;;;;;;;4420537;32;19945;-70
2021/11/18 01:16:33;;;;;;;32.20;9.13;;;;;;;;;;4420717;32;20137;-70
2021/11/18 01:18:58;;;;;;;35.58;8.05;;;;;;;;;;4420095;32;20404;-69
2021/11/18 01:21:23;;;;;;;;;;;;;;;;;;4420840;32;20059;-70
2021/11/18 01:23:51;;;;;;;37.10;8.63;;;;;;;;;;4407011;32;19937;-70
2021/11/18 01:26:17;;;;;;;31.08;7.55;;;;;;;;;;4420671;32;20179;-70
2021/11/18 01:28:43;;;;;;;;;;;;;;;;;;4421358;32;20026;-70
2021/11/18 01:31:08;;;;;;;33.85;7.95;;;;;;;;;;4421063;32;20303;-69
2021/11/18 01:33:33;;;;;;;;;;;;;;;;;;4420734;32;20022;-70
2021/11/18 01:35:59;;;;;;;41.35;8.95;;;;;;;;;;4406379;32;19947;-70
2021/11/18 01:38:24;;;;;;;;;;;;;;;;;;4420758;32;20026;-70
2021/11/18 01:41:15;;;;;;;33.53;8.93;;;;;;;;;;4420020;32;19960;-70
2021/11/18 01:43:43;;;;;;;30.27;8.30;;;;;;;;;;4417741;32;20026;-71
2021/11/18 01:46:11;;;;;;;47.83;8.70;;;;;;;;;;4420513;32;20021;-70
2021/11/18 01:48:37;;;;;;;29.33;8.90;;;;;;;;;;4420382;32;20061;-69
2021/11/18 01:51:02;;;;;;;;;;;;;;;;;;4420562;32;20445;-70
2021/11/18 01:53:35;;;;;;;29.10;7.32;;;;;;;;;;4423650;32;19937;-70
2021/11/18 01:56:00;;;;;;;34.72;9.55;;;;;;;;;;4423312;32;20139;-70
2021/11/18 01:58:26;;;;;;;;;;;;;;;;;;4423552;32;20383;-70
2021/11/18 02:00:53;;;;;;;26.50;7.85;;;;;;;;;;4423130;32;20016;-69
2021/11/18 02:03:18;;;;;;;32.33;10.23;;;;;;;;;;4409395;32;20042;-70
2021/11/18 02:05:43;;;;;;;;;;;;;;;;;;4424400;32;20022;-70
2021/11/18 02:08:08;;;;;;;39.92;10.02;;;;;;;;;;4423266;32;19951;-70
2021/11/18 02:10:33;;;;;;;;;;;;;;;;;;4423882;32;20057;-70
2021/11/18 02:13:00;;;;;;;31.73;7.53;;;;;;;;;;4423072;32;19932;-69
2021/11/18 02:15:28;;;;;;;31.10;8.90;;;;;;;;;;4422975;32;20222;-70
2021/11/18 02:17:54;;;;;;;40.55;8.07;;;;;;;;;;4422948;32;20026;-70
2021/11/18 02:20:19;;;;;;;;;;;;;;;;;;4423131;32;20041;-70
2021/11/18 02:22:45;;;;;;;29.62;8.24;;;;;;;;;;4409041;32;19945;-70
2021/11/18 02:25:10;;;;;;;;;;;;;;;;;;4409211;32;20044;-70
2021/11/18 02:27:35;;;;;;;35.47;10.75;;;;;;;;;;4423357;32;19940;-70
2021/11/18 02:30:00;;;;;;;;;;;;;;;;;;4423492;32;20042;-69
2021/11/18 02:32:30;;;;;;;34.47;8.18;;;;;;;;;;4408994;32;19979;-70
2021/11/18 02:35:04;;;;;;;38.03;8.80;;;;;;;;;;4422223;32;20030;-70
2021/11/18 02:37:29;;;;;;;32.35;9.73;;;;;;;;;;4423146;32;20044;-69
2021/11/18 02:39:55;;;;;;;;;;;;;;;;;;4423722;32;20347;-70
2021/11/18 02:42:24;;;;;;;38.72;9.90;;;;;;;;;;4422223;32;19949;-70
2021/11/18 02:44:49;;;;;;;38.38;9.60;;;;;;;;;;4422096;32;20087;-70
2021/11/18 02:47:14;;;;;;;;;;;;;;;;;;4422537;32;20038;-69
2021/11/18 02:49:42;;;;;;;52.47;11.65;;;;;;;;;;4422384;32;19970;-70
2021/11/18 02:52:33;;;;;;;38.85;9.95;;;;;;;;;;4421995;32;20061;-70
2021/11/18 02:55:01;;;;;;;34.15;8.07;;;;;;;;;;4411053;32;20072;-70
2021/11/18 02:57:26;;;;;;;35.08;9.13;;;;;;;;;;4421603;32;20064;-70
2021/11/18 02:59:51;;;;;;;;;;;;;;;;;;4408371;32;20345;-70
2021/11/18 03:02:17;;;;;;;41.95;10.63;;;;;;;;;;4408140;32;19961;-69
2021/11/18 03:04:42;;;;;;;;;;;;;;;;;;4422079;32;20137;-70
2021/11/18 03:07:07;;;;;;;37.70;11.23;;;;;;;;;;4422100;32;19976;-70
2021/11/18 03:09:33;;;;;;;;;;;;;;;;;;4422039;32;20121;-70
2021/11/18 03:12:17;;;;;;;;;;;;;;;;;;;;;
2021/11/18 03:14:45;;;;;;;38.63;9.82;;;;;;;;;;4422439;32;20029;-70
2021/11/18 03:17:10;;;;;;;36.08;9.10;;;;;;;;;;4422063;32;20038;-70
2021/11/18 03:19:36;;;;;;;;;;;;;;;;;;4423266;32;20034;-70
2021/11/18 03:22:01;;;;;;;36.00;8.64;;;;;;;;;;4407994;32;19941;-70
2021/11/18 03:24:26;;;;;;;;;;;;;;;;;;4422918;32;20065;-70
2021/11/18 03:26:51;;;;;;;46.58;8.75;;;;;;;;;;4422294;32;19937;-70
2021/11/18 03:29:17;;;;;;;;;;;;;;;;;;4421852;32;20549;-70
2021/11/18 03:31:42;;;;;;;29.33;7.20;;;;;;;;;;4422299;32;19933;-70
2021/11/18 03:34:07;;;;;;;;;;;;;;;;;;4422234;32;20344;-70
2021/11/18 03:36:32;;;;;;;35.60;8.57;;;;;;;;;;4421714;32;19947;-70
2021/11/18 03:38:58;;;;;;;;;;;;;;;;;;4422131;32;20102;-70
2021/11/18 03:41:24;;;;;;;32.67;10.13;;;;;;;;;;4422589;32;19937;-70
2021/11/18 03:43:51;;;;;;;38.78;8.95;;;;;;;;;;4422883;32;20052;-70
2021/11/18 03:46:17;;;;;;;35.60;8.00;;;;;;;;;;4422248;32;20395;-70
2021/11/18 03:48:43;;;;;;;37.95;8.93;;;;;;;;;;4422629;32;20029;-70
2021/11/18 03:51:08;;;;;;;;;;;;;;;;;;4408583;32;20430;-70
2021/11/18 03:53:34;;;;;;;33.08;8.65;;;;;;;;;;4421667;32;19952;-70
2021/11/18 03:56:04;;;;;;;40.65;9.35;;;;;;;;;;4421693;32;20055;-70
2021/11/18 03:58:29;;;;;;;32.00;9.35;;;;;;;;;;4421011;32;20375;-70
2021/11/18 04:00:57;;;;;;;;;;;;;;;;;;4420879;32;20083;-70
2021/11/18 04:03:25;;;;;;;35.90;9.38;;;;;;;;;;4421775;32;20308;-70
2021/11/18 04:05:50;;;;;;;30.30;7.22;;;;;;;;;;4421389;32;20462;-70
2021/11/18 04:08:16;;;;;;;;;;;;;;;;;;4421341;32;20057;-70
2021/11/18 04:10:41;;;;;;;29.83;9.00;;;;;;;;;;4421223;32;19984;-70
2021/11/18 04:13:06;;;;;;;;;;;;;;;;;;4421771;32;20057;-70
2021/11/18 04:15:42;;;;;;;;;;;;;;;;;;;;;
2021/11/18 04:18:08;;;;;;;39.88;8.85;;;;;;;;;;4421357;32;20061;-70
2021/11/18 04:20:33;;;;;;;;;;;;;;;;;;4421459;32;20420;-70
2021/11/18 04:22:59;;;;;;;32.83;8.73;;;;;;;;;;4422455;32;19941;-70
2021/11/18 04:25:24;;;;;;;;;;;;;;;;;;4422590;32;20130;-70
2021/11/18 04:27:52;;;;;;;28.80;9.27;;;;;;;;;;4421411;32;19956;-70
2021/11/18 04:30:19;;;;;;;29.92;8.43;;;;;;;;;;4421511;32;20455;-70
2021/11/18 04:32:45;;;;;;;37.08;11.20;;;;;;;;;;4422435;32;20403;-70
2021/11/18 04:35:10;;;;;;;;;;;;;;;;;;4407458;32;20026;-69
2021/11/18 04:37:36;;;;;;;38.20;9.02;;;;;;;;;;4421190;32;19974;-70
2021/11/18 04:40:01;;;;;;;;;;;;;;;;;;4421204;32;20113;-69
2021/11/18 04:42:26;;;;;;;33.15;9.00;;;;;;;;;;4421330;32;20265;-70
2021/11/18 04:44:52;;;;;;;;;;;;;;;;;;4422297;32;20510;-69
2021/11/18 04:47:17;;;;;;;39.20;10.57;;;;;;;;;;4421661;32;20287;-70
2021/11/18 04:49:43;;;;;;;;;;;;;;;;;;4422509;32;20050;-70
2021/11/18 04:52:08;;;;;;;38.72;12.10;;;;;;;;;;4408204;32;19955;-70
2021/11/18 04:54:33;;;;;;;;;;;;;;;;;;4421343;32;20042;-70
2021/11/18 04:57:12;;;;;;;;;;;;;;;;;;;;;
2021/11/18 04:59:38;;;;;;;30.77;9.50;;;;;;;;;;4417888;32;20137;-69
2021/11/18 05:02:03;;;;;;;;;;;;;;;;;;4421114;32;20060;-69
2021/11/18 05:04:29;;;;;;;42.22;10.90;;;;;;;;;;4420554;32;19933;-69
2021/11/18 05:06:54;;;;;;;;;;;;;;;;;;4420862;32;20064;-69
2021/11/18 05:09:19;;;;;;;37.25;10.57;;;;;;;;;;4420593;32;19934;-69
2021/11/18 05:11:44;;;;;;;;;;;;;;;;;;4420821;32;20065;-71
2021/11/18 05:14:10;;;;;;;40.65;12.07;;;;;;;;;;4421910;32;19990;-71
2021/11/18 05:16:36;;;;;;;;;;;;;;;;;;4420753;32;20408;-70
2021/11/18 05:19:01;;;;;;;52.88;11.77;;;;;;;;;;4420501;32;19957;-70
2021/11/18 05:21:28;;;;;;;;;;;;;;;;;;4421612;32;20065;-71
2021/11/18 05:23:58;;;;;;;40.72;13.25;;;;;;;;;;4421900;32;19937;-70
2021/11/18 05:26:24;;;;;;;39.00;10.65;;;;;;;;;;4421747;32;20030;-70
2021/11/18 05:28:49;;;;;;;35.25;11.52;;;;;;;;;;4423300;32;20078;-70
2021/11/18 05:31:14;;;;;;;;;;;;;;;;;;4423946;32;20033;-70
2021/11/18 05:33:40;;;;;;;35.25;9.82;;;;;;;;;;4423952;32;19937;-70
2021/11/18 05:36:06;;;;;;;;;;;;;;;;;;4423572;32;20060;-70
2021/11/18 05:38:31;;;;;;;41.85;11.55;;;;;;;;;;4409650;32;19937;-70
2021/11/18 05:40:56;;;;;;;;;;;;;;;;;;4409939;32;20193;-69
2021/11/18 05:43:22;;;;;;;49.72;10.63;;;;;;;;;;4423648;32;19933;-71
2021/11/18 05:45:48;;;;;;;35.50;12.02;;;;;;;;;;4423570;32;20057;-70
2021/11/18 05:48:16;;;;;;;;;;;;;;;;;;4411198;32;20321;-70
2021/11/18 05:50:44;;;;;;;;;;;;;;;;;;4423925;32;19945;-70
2021/11/18 05:53:10;;;;;;;39.65;9.65;;;;;;;;;;4423292;32;19959;-70
2021/11/18 05:55:35;;;;;;;;;;;;;;;;;;4425186;32;20030;-70
2021/11/18 05:58:01;;;;;;;30.70;10.32;;;;;;;;;;4423308;32;19937;-70
2021/11/18 06:00:26;;;;;;;;;;;;;;;;;;4423873;32;20106;-70
2021/11/18 06:02:51;;;;;;;39.42;11.57;;;;;;;;;;4423880;32;19933;-70
2021/11/18 06:05:16;;;;;;;;;;;;;;;;;;4425257;32;20073;-70
2021/11/18 06:07:42;;;;;;;35.67;9.73;;;;;;;;;;4422159;32;19937;-71
2021/11/18 06:10:07;;;;;;;;;;;;;;;;;;4423276;32;20437;-71
2021/11/18 06:12:33;;;;;;;41.90;10.68;;;;;;;;;;4423129;32;19945;-71
2021/11/18 06:14:58;;;;;;;;;;;;;;;;;;4423825;32;20188;-69
2021/11/18 06:17:23;;;;;;;44.02;9.14;;;;;;;;;;4422713;32;19937;-70
2021/11/18 06:19:48;;;;;;;;;;;;;;;;;;4423321;32;20442;-70
2021/11/18 06:22:14;;;;;;;40.42;10.55;;;;;;;;;;4423049;32;19945;-71
2021/11/18 06:24:39;;;;;;;;;;;;;;;;;;4423220;32;20140;-71
2021/11/18 06:27:05;;;;;;;46.13;9.70;;;;;;;;;;4423319;32;20023;-71
2021/11/18 06:29:32;;;;;;;;;;;;;;;;;;4422770;32;20118;-71
2021/11/18 06:31:59;;;;;;;33.08;10.35;;;;;;;;;;4422335;32;19977;-71
2021/11/18 06:34:28;;;;;;;37.30;9.90;;;;;;;;;;4422465;32;20030;-70
2021/11/18 06:36:54;;;;;;;40.80;10.45;;;;;;;;;;4409177;32;20048;-70
2021/11/18 06:39:19;;;;;;;;;;;;;;;;;;4409170;32;20029;-70
2021/11/18 06:41:48;;;;;;;47.33;10.85;;;;;;;;;;4423368;32;20315;-70
2021/11/18 06:44:13;;;;;;;37.53;10.45;;;;;;;;;;4422331;32;20531;-71
2021/11/18 06:46:39;;;;;;;;;;;;;;;;;;4422582;32;20049;-70
2021/11/18 06:49:07;;;;;;;42.08;10.20;;;;;;;;;;4422422;32;20008;-70
2021/11/18 06:51:33;;;;;;;48.15;10.98;;;;;;;;;;4422651;32;20054;-71
2021/11/18 06:53:58;;;;;;;;;;;;;;;;;;4423124;32;20370;-70
2021/11/18 06:56:25;;;;;;;39.95;10.93;;;;;;;;;;4408245;32;20397;-70
2021/11/18 06:58:51;;;;;;;45.67;9.98;;;;;;;;;;4409507;32;20041;-69
2021/11/18 07:01:16;;;;;;;;;;;;;;;;;;4422342;32;20438;-69
2021/11/18 07:03:42;;;;;;;50.63;10.60;;;;;;;;;;4422361;32;19956;-70
2021/11/18 07:06:07;;;;;;;;;;;;;;;;;;4422855;32;20114;-70
2021/11/18 07:08:32;;;;;;;42.45;10.70;;;;;;;;;;4422205;32;19934;-70
2021/11/18 07:10:58;;;;;;;;;;;;;;;;;;4423073;32;20041;-69
2021/11/18 07:13:25;;;;;;;39.08;10.38;;;;;;;;;;4422083;32;20342;-69
2021/11/18 07:15:51;;;;;;;34.10;10.07;;;;;;;;;;4407959;32;20109;-70
2021/11/18 07:18:17;;;;;;;39.90;10.27;;;;;;;;;;4422450;32;20025;-70
2021/11/18 07:20:43;;;;;;;;;;;;;;;;;;4423610;32;20130;-70
2021/11/18 07:23:11;;;;;;;37.35;10.57;;;;;;;;;;4408065;32;19952;-70
2021/11/18 07:25:37;;;;;;;41.72;10.18;;;;;;;;;;4421627;32;20030;-69
2021/11/18 07:28:02;;;;;;;;;;;;;;;;;;4421855;32;20056;-69
2021/11/18 07:30:27;;;;;;;38.40;9.98;;;;;;;;;;4408784;32;19978;-69
2021/11/18 07:32:52;;;;;;;;;;;;;;;;;;4408030;32;20122;-69
2021/11/18 07:35:18;;;;;;;46.88;11.00;;;;;;;;;;4421662;32;19945;-69
2021/11/18 07:37:43;;;;;;;;;;;;;;;;;;4408382;32;20483;-70
2021/11/18 07:40:10;;;;;;;29.75;9.52;;;;;;;;;;4422466;32;19955;-69
2021/11/18 07:42:36;;;;;;;43.97;9.93;;;;;;;;;;4421771;32;20057;-70
2021/11/18 07:45:01;;;;;;;;;;;;;;;;;;4422218;32;20030;-70
2021/11/18 07:47:26;;;;;;;36.63;11.73;;;;;;;;;;4421211;32;19983;-70
2021/11/18 07:49:52;;;;;;;;;;;;;;;;;;4420983;32;20410;-70
2021/11/18 07:52:17;;;;;;;33.92;9.70;;;;;;;;;;4421126;32;19960;-69
2021/11/18 07:54:42;;;;;;;;;;;;;;;;;;4422422;32;20141;-71
2021/11/18 07:57:07;;;;;;;51.47;12.00;;;;;;;;;;4421436;32;19951;-70
2021/11/18 07:59:32;;;;;;;;;;;;;;;;;;4421856;32;20106;-70
2021/11/18 08:01:58;;;;;;;27.35;9.70;;;;;;;;;;4407638;32;19967;-69
2021/11/18 08:04:24;;;;;;;;;;;;;;;;;;4423061;32;20042;-69
2021/11/18 08:06:50;;;;;;;41.83;11.15;;;;;;;;;;4422830;32;20334;-69
2021/11/18 08:09:15;;;;;;;;;;;;;;;;;;4422146;32;20030;-69
2021/11/18 08:11:46;;;;;;;37.63;11.95;;;;;;;;;;4421080;32;20236;-69
2021/11/18 08:14:13;;;;;;;33.22;10.57;;;;;;;;;;4421789;32;20033;-69
2021/11/18 08:16:40;;;;;;;39.70;10.38;;;;;;;;;;4421184;32;20034;-70
2021/11/18 08:19:06;;;;;;;35.75;10.57;;;;;;;;;;4421827;32;20097;-70
2021/11/18 08:21:31;;;;;;;;;;;;;;;;;;4407938;32;20520;-69
2021/11/18 08:24:03;;;;;;;36.45;11.43;;;;;;;;;;4421191;32;20399;-70
2021/11/18 08:26:29;;;;;;;41.97;12.65;;;;;;;;;;4421557;32;20033;-70
2021/11/18 08:28:54;;;;;;;;;;;;;;;;;;4421102;32;20091;-70
2021/11/18 08:31:20;;;;;;;36.47;10.68;;;;;;;;;;4420791;32;19936;-70
2021/11/18 08:33:45;;;;;;;39.40;9.98;;;;;;;;;;4422292;32;20107;-71
2021/11/18 08:36:11;;;;;;;;;;;;;;;;;;4420997;32;20030;-70
2021/11/18 08:38:36;;;;;;;45.83;12.68;;;;;;;;;;4420658;32;20317;-70
2021/11/18 08:41:02;;;;;;;;;;;;;;;;;;4421691;32;20549;-70
2021/11/18 08:43:28;;;;;;;33.55;10.48;;;;;;;;;;4420644;32;19980;-69
2021/11/18 08:45:53;;;;;;;;;;;;;;;;;;4420804;32;20034;-69
2021/11/18 08:48:19;;;;;;;31.85;9.65;;;;;;;;;;4421570;32;19949;-71
2021/11/18 08:50:46;;;;;;;36.45;9.70;;;;;;;;;;4420905;32;20149;-70
2021/11/18 08:53:12;;;;;;;31.73;9.95;;;;;;;;;;4421293;32;20026;-70
2021/11/18 08:55:38;;;;;;;39.70;10.60;;;;;;;;;;4407520;32;20496;-71
2021/11/18 08:58:05;;;;;;;34.33;9.43;;;;;;;;;;4406351;32;20414;-71
2021/11/18 09:00:32;;;;;;;33.53;10.18;;;;;;;;;;4420889;32;20081;-69
2021/11/18 09:02:58;;;;;;;39.25;12.02;;;;;;;;;;4420042;32;20066;-68
2021/11/18 09:05:23;;;;;;;;;;;;;;;;;;4421984;32;20520;-71
2021/11/18 09:08:07;;;;;;;;;;;;;;;;;;;;;
2021/11/18 09:10:34;;;;;;;38.50;9.73;;;;;;;;;;4419921;32;20471;-71
2021/11/18 09:13:03;;;;;;;33.22;11.20;;;;;;;;;;4420654;32;20106;-71
2021/11/18 09:15:29;;;;;;;38.85;9.98;;;;;;;;;;4406687;32;20402;-70
2021/11/18 09:17:56;;;;;;;;;;;;;;;;;;4421016;32;20088;-70
2021/11/18 09:20:22;;;;;;;34.00;10.45;;;;;;;;;;4420764;32;19949;-70
2021/11/18 09:22:48;;;;;;;39.53;10.73;;;;;;;;;;4420595;32;20065;-71
2021/11/18 09:25:13;;;;;;;;;;;;;;;;;;4420686;32;20051;-70
2021/11/18 09:27:45;;;;;;;39.30;11.20;;;;;;;;;;4421112;32;20368;-70
2021/11/18 09:30:14;;;;;;;39.95;9.90;;;;;;;;;;4399975;32;20460;-69
2021/11/18 09:32:39;;;;;;;46.75;8.70;;;;;;;;;;4394162;32;20446;-69
2021/11/18 09:35:07;;;;;;;;;;;;;;;;;;4389339;32;20026;-70
2021/11/18 09:37:32;;;;;;;;;;;;;;;;;;4398725;32;19971;-70
2021/11/18 09:39:58;;;;;;;39.22;8.65;;;;;;;;;;4405493;32;19938;-69
2021/11/18 09:42:23;;;;;;;;;;;;;;;;;;4405491;32;20046;-70
2021/11/18 09:45:05;;;;;;;31.05;10.07;;;;;;;;;;4391324;32;19945;-70
2021/11/18 09:47:49;;;;;;;36.90;10.30;;;;;;;;;;4403387;32;20134;-70
2021/11/18 09:50:14;;;;;;;35.13;10.10;;;;;;;;;;4401307;32;20034;-69
2021/11/18 09:52:39;;;;;;;;;;;;;;;;;;4391011;32;20100;-70
2021/11/18 09:55:14;;;;;;;31.15;8.48;;;;;;;;;;4401141;32;19988;-70
2021/11/18 09:57:48;;;;;;;32.35;8.95;;;;;;;;;;4404689;32;20038;-70
2021/11/18 10:00:39;;;;;;;29.05;8.13;;;;;;;;;;4400879;32;20035;-70
2021/11/18 10:03:15;;;;;;;43.35;9.48;;;;;;;;;;4389446;32;20368;-70
2021/11/18 10:05:55;;;;;;;37.08;10.10;;;;;;;;;;4404342;32;20105;-70
2021/11/18 10:08:22;;;;;;;31.33;8.68;;;;;;;;;;4404614;32;20165;-70
2021/11/18 10:11:06;;;;;;;29.83;8.40;;;;;;;;;;4401349;32;20133;-70
2021/11/18 10:13:34;;;;;;;30.40;8.50;;;;;;;;;;4402754;32;20098;-70
2021/11/18 10:16:18;;;;;;;30.42;9.55;;;;;;;;;;4404461;32;20034;-70
2021/11/18 10:22:15;;;;;;;;;;;;;;;;;;;;;
2021/11/18 10:24:42;;;;;;;26.40;7.30;;;;;;;;;;4397057;32;20368;-70
2021/11/18 10:27:10;;;;;;;27.65;7.87;;;;;;;;;;4407646;32;20069;-70
2021/11/18 10:30:03;;;;;;;21.87;7.05;;;;;;;;;;4407944;32;20027;-70
2021/11/18 10:32:48;;;;;;;35.53;10.52;;;;;;;;;;4395813;32;20050;-71
2021/11/18 10:35:18;;;;;;;31.77;8.38;;;;;;;;;;4398858;32;20048;-69
2021/11/18 10:38:31;;;;;;;32.72;9.85;;;;;;;;;;4408216;32;20417;-70
2021/11/18 10:44:30;;;;;;;42.42;11.15;;;;;;;;;;4389396;32;20031;-70
2021/11/18 10:46:58;;;;;;;33.00;8.35;;;;;;;;;;4389668;32;20038;-70
2021/11/18 10:50:09;;;;;;;27.87;8.63;;;;;;;;;;4389255;32;20459;-71
2021/11/18 10:52:48;;;;;;;27.92;8.00;;;;;;;;;;4394233;32;20026;-71
2021/11/18 10:55:35;;;;;;;32.30;7.65;;;;;;;;;;4393571;32;20049;-70
2021/11/18 11:01:43;;;;;;;30.42;7.75;;;;;;;;;;4407971;32;20045;-71
2021/11/18 11:10:21;;;;;;;31.67;8.02;;;;;;;;;;4374452;32;20059;-71
2021/11/18 11:13:21;;;;;;;25.48;7.40;;;;;;;;;;4387193;32;20089;-71
2021/11/18 11:16:12;;;;;;;31.02;6.50;;;;;;;;;;4391523;32;20116;-71
2021/11/18 11:22:07;;;;;;;37.13;8.30;;;;;;;;;;4391832;32;20360;-72
2021/11/18 11:24:57;;;;;;;34.03;8.25;;;;;;;;;;4391945;32;20068;-71
2021/11/18 11:46:10;;;;;;;;;;;;;;;;;;;;;
2021/11/18 11:52:11;;;;;;;23.92;6.18;;;;;;;;;;4360244;32;20081;-71
2021/11/18 11:55:11;;;;;;;;;;;;;;;;;;;;;
2021/11/18 12:13:00;;;;;;;39.30;7.25;;;;;;;;;;4356387;32;20426;-70
2021/11/18 12:16:27;;;;;;;24.02;7.22;;;;;;;;;;4376836;32;20220;-70
2021/11/18 12:18:39;;;;;;;33.88;7.30;;;;;;;;;;4374397;32;20486;-70
2021/11/18 12:21:05;;;;;;;32.15;8.25;;;;;;;;;;4389126;32;20023;-71
2021/11/18 12:23:30;;;;;;;;;;;;;;;;;;4388421;32;20100;-71
2021/11/18 12:26:04;;;;;;;33.40;8.18;;;;;;;;;;4389067;32;19952;-68
2021/11/18 12:28:51;;;;;;;34.50;8.05;;;;;;;;;;4388521;32;20046;-70
2021/11/18 12:31:29;;;;;;;28.17;6.68;;;;;;;;;;4406864;32;20029;-71
2021/11/18 12:34:00;;;;;;;25.75;7.15;;;;;;;;;;4420773;32;20328;-71
2021/11/18 12:36:47;;;;;;;29.50;7.87;;;;;;;;;;4420468;32;20458;-71
2021/11/18 12:39:12;;;;;;;;;;;;;;;;;;4420836;32;20027;-71
2021/11/18 12:42:02;;;;;;;26.37;6.12;;;;;;;;;;4421258;32;20307;-71
2021/11/18 12:47:49;;;;;;;24.65;6.35;;;;;;;;;;4388348;32;20018;-70
2021/11/18 12:50:33;;;;;;;31.58;8.02;;;;;;;;;;4375226;32;20348;-71
2021/11/18 12:53:10;;;;;;;30.95;7.68;;;;;;;;;;4408326;32;20080;-70
2021/11/18 12:55:44;;;;;;;34.95;8.40;;;;;;;;;;4422310;32;20018;-70
2021/11/18 12:58:24;;;;;;;40.15;7.87;;;;;;;;;;4420876;32;20022;-71
2021/11/18 13:00:51;;;;;;;33.13;7.53;;;;;;;;;;4420626;32;20293;-71
2021/11/18 13:03:35;;;;;;;27.50;7.18;;;;;;;;;;4411375;32;20061;-71
2021/11/18 13:06:02;;;;;;;30.25;5.75;;;;;;;;;;4399065;32;20022;-70
2021/11/18 13:08:30;;;;;;;29.87;6.72;;;;;;;;;;4402627;32;20077;-71
2021/11/18 13:11:15;;;;;;;29.67;7.03;;;;;;;;;;4405907;32;20031;-69
2021/11/18 13:13:41;;;;;;;27.17;6.18;;;;;;;;;;4405458;32;20030;-70
2021/11/18 13:16:06;;;;;;;;;;;;;;;;;;4405090;32;20038;-68
2021/11/18 13:18:33;;;;;;;25.30;5.47;;;;;;;;;;4405198;32;19975;-71
2021/11/18 13:21:17;;;;;;;26.35;6.07;;;;;;;;;;4404733;32;20383;-70
2021/11/18 13:23:51;;;;;;;40.65;7.55;;;;;;;;;;4404904;32;20400;-68
2021/11/18 13:26:19;;;;;;;33.75;6.15;;;;;;;;;;4406193;32;20068;-70
2021/11/18 13:29:05;;;;;;;22.90;5.53;;;;;;;;;;4404845;32;20057;-71
2021/11/18 13:31:36;;;;;;;23.23;5.20;;;;;;;;;;4405201;32;20390;-70
2021/11/18 13:34:14;;;;;;;23.92;4.70;;;;;;;;;;4405657;32;20068;-71
2021/11/18 13:36:39;;;;;;;27.85;6.22;;;;;;;;;;4405021;32;20053;-70
2021/11/18 13:39:05;;;;;;;;;;;;;;;;;;4405047;32;20026;-71
2021/11/18 13:41:43;;;;;;;27.35;6.03;;;;;;;;;;4404950;32;20302;-70
2021/11/18 13:44:20;;;;;;;36.10;6.55;;;;;;;;;;4402892;32;20083;-72
2021/11/18 13:46:50;;;;;;;32.45;6.60;;;;;;;;;;4418563;32;20099;-70
2021/11/18 13:49:15;;;;;;;26.10;5.00;;;;;;;;;;4423685;32;20396;-70
2021/11/18 13:51:40;;;;;;;;;;;;;;;;;;4423111;32;20045;-70
2021/11/18 13:54:07;;;;;;;25.73;5.60;;;;;;;;;;4405911;32;19970;-70
2021/11/18 13:56:41;;;;;;;30.15;5.57;;;;;;;;;;4378547;32;20123;-70
2021/11/18 13:59:15;;;;;;;31.55;6.07;;;;;;;;;;4392845;32;20084;-71
2021/11/18 14:01:41;;;;;;;31.10;5.78;;;;;;;;;;4394436;32;20383;-69
2021/11/18 14:04:13;;;;;;;25.17;5.93;;;;;;;;;;4392835;32;20130;-70
2021/11/18 14:06:45;;;;;;;23.85;5.37;;;;;;;;;;4393252;32;20053;-71
2021/11/18 14:09:33;;;;;;;27.65;5.60;;;;;;;;;;4379396;32;20011;-71
2021/11/18 14:12:36;;;;;;;23.33;5.03;;;;;;;;;;4392403;32;20101;-70
2021/11/18 14:15:28;;;;;;;23.65;4.80;;;;;;;;;;4392034;32;20022;-70
2021/11/18 14:18:22;;;;;;;25.60;6.18;;;;;;;;;;4386553;32;20427;-71
2021/11/18 14:20:50;;;;;;;26.70;6.07;;;;;;;;;;4406323;32;20029;-71
2021/11/18 14:23:51;;;;;;;26.92;4.95;;;;;;;;;;4407001;32;20049;-72
2021/11/18 14:26:17;;;;;;;22.30;5.03;;;;;;;;;;4408085;32;20019;-71
2021/11/18 14:28:46;;;;;;;23.92;4.75;;;;;;;;;;4408731;32;20338;-71
2021/11/18 14:31:48;;;;;;;30.55;5.22;;;;;;;;;;4407780;32;20123;-71
2021/11/18 14:34:16;;;;;;;22.92;4.03;;;;;;;;;;4394381;32;20010;-70
2021/11/18 14:39:55;;;;;;;22.45;5.18;;;;;;;;;;4408237;32;20075;-70
2021/11/18 14:42:22;;;;;;;23.80;4.35;;;;;;;;;;4408302;32;20019;-70
2021/11/18 14:44:59;;;;;;;22.45;4.82;;;;;;;;;;4406934;32;20329;-71
2021/11/18 14:47:30;;;;;;;17.75;4.03;;;;;;;;;;4408810;32;20043;-71
2021/11/18 14:50:16;;;;;;;18.00;4.18;;;;;;;;;;4393737;32;20027;-71
2021/11/18 14:52:42;;;;;;;26.25;4.80;;;;;;;;;;4393484;32;20026;-71
2021/11/18 14:55:07;;;;;;;;;;;;;;;;;;4407350;32;20030;-70
2021/11/18 14:57:32;;;;;;;33.08;5.43;;;;;;;;;;4407263;32;19933;-70
2021/11/18 15:00:02;;;;;;;15.95;3.85;;;;;;;;;;4406418;32;20061;-71
2021/11/18 15:02:37;;;;;;;26.27;4.53;;;;;;;;;;4407320;32;20026;-71
2021/11/18 15:05:02;;;;;;;28.17;4.93;;;;;;;;;;4407508;32;20034;-70
2021/11/18 15:07:28;;;;;;;;;;;;;;;;;;4407594;32;20403;-71
2021/11/18 15:09:55;;;;;;;15.88;4.15;;;;;;;;;;4408231;32;20331;-71
2021/11/18 15:12:54;;;;;;;34.28;5.80;;;;;;;;;;4406627;32;20043;-71
2021/11/18 15:15:22;;;;;;;11.77;4.32;;;;;;;;;;4401759;32;20022;-71
2021/11/18 15:17:52;;;;;;;22.45;5.55;;;;;;;;;;4407644;32;20148;-72
2021/11/18 15:20:18;;;;;;;25.27;5.45;;;;;;;;;;4407915;32;20079;-71
2021/11/18 15:22:43;;;;;;;;;;;;;;;;;;4393211;32;20093;-71
2021/11/18 15:25:11;;;;;;;23.87;4.47;;;;;;;;;;4407072;32;19984;-70
2021/11/18 15:27:37;;;;;;;19.45;4.07;;;;;;;;;;4406528;32;20139;-70
2021/11/18 15:30:02;;;;;;;;;;;;;;;;;;4407806;32;20310;-71
2021/11/18 15:35:21;;;;;;;21.73;4.87;;;;;;;;;;4403660;32;20138;-70
2021/11/18 15:37:48;;;;;;;29.33;5.28;;;;;;;;;;4393228;32;20027;-70
2021/11/18 15:40:14;;;;;;;23.45;4.87;;;;;;;;;;4407373;32;20025;-71
2021/11/18 15:42:42;;;;;;;;;;;;;;;;;;4406369;32;20049;-70
2021/11/18 15:45:08;;;;;;;17.27;4.87;;;;;;;;;;4406981;32;19965;-70
2021/11/18 15:47:34;;;;;;;22.70;4.60;;;;;;;;;;4392764;32;20352;-70
2021/11/18 15:50:03;;;;;;;;;;;;;;;;;;4400339;32;20096;-70
2021/11/18 15:52:32;;;;;;;24.27;4.65;;;;;;;;;;4405536;32;19971;-70
2021/11/18 15:54:59;;;;;;;20.35;5.03;;;;;;;;;;4406065;32;20091;-70
2021/11/18 15:57:25;;;;;;;22.20;5.30;;;;;;;;;;4406417;32;20097;-70
2021/11/18 15:59:51;;;;;;;25.45;5.68;;;;;;;;;;4406575;32;20084;-70
2021/11/18 16:02:18;;;;;;;24.20;4.85;;;;;;;;;;4392653;32;20352;-70
2021/11/18 16:04:44;;;;;;;23.65;5.50;;;;;;;;;;4391989;32;20022;-70
2021/11/18 16:07:11;;;;;;;;;;;;;;;;;;4406137;32;20026;-70
2021/11/18 16:09:37;;;;;;;23.87;5.07;;;;;;;;;;4405809;32;19960;-71
2021/11/18 16:12:29;;;;;;;24.52;5.37;;;;;;;;;;4391569;32;20095;-71
2021/11/18 16:14:57;;;;;;;26.27;5.50;;;;;;;;;;4402722;32;20046;-71
2021/11/18 16:17:35;;;;;;;29.33;6.47;;;;;;;;;;4406145;32;20022;-70
2021/11/18 16:20:26;;;;;;;32.28;6.90;;;;;;;;;;4406463;32;20014;-70
2021/11/18 16:22:52;;;;;;;23.35;5.72;;;;;;;;;;4403083;32;20117;-71
2021/11/18 16:25:17;;;;;;;;;;;;;;;;;;4406188;32;20054;-70
2021/11/18 16:27:43;;;;;;;33.47;6.85;;;;;;;;;;4405781;32;19956;-72